South Range, Michigan
Current Conditions -  °F | °C
As of 10:53 PM on Saturday 20 Dec 2014 (Local Time) from KCMX Reporting Station
Overcast Overcast  
Wind Chill: -6°   Ceiling: 2600
Heat Index: -2°   Visibility: 10mi
Dew Point: -4°   Wind: 7mph
Humidity: 88%   Direction: 180°S
Pressure: 30.12"   Gusts: NA
Location:  47.07°N, 88.64°W
Report Text: KCMX 210353Z AUTO 18006KT 10SM OVC026 M02/M04 A3012 RMK AO2 SLP217 T10221039
Loading
Personal Weather Stations






























Interactive Weather Map New forecast layout! Learn more

10-Day Weather Forecast

Advertisements
Track Severe Weather on mobile